createdAt,value
2016-09-25T00:00:36.206Z,1011.3
2016-09-25T00:01:36.228Z,1011.28
2016-09-25T00:02:36.250Z,1011.26
2016-09-25T00:03:36.274Z,1011.28
2016-09-25T00:04:36.293Z,1011.23
2016-09-25T00:05:36.315Z,1011.28
2016-09-25T00:06:36.344Z,1011.3
2016-09-25T00:07:36.360Z,1011.29
2016-09-25T00:08:36.378Z,1011.28
2016-09-25T00:09:36.401Z,1011.26
2016-09-25T00:10:36.424Z,1011.26
2016-09-25T00:11:36.448Z,1011.26
2016-09-25T00:12:36.470Z,1011.25
2016-09-25T00:13:36.493Z,1011.22
2016-09-25T00:14:36.510Z,1011.26
2016-09-25T00:15:36.531Z,1011.26
2016-09-25T00:16:36.552Z,1011.23
2016-09-25T00:17:36.574Z,1011.28
2016-09-25T00:18:36.598Z,1011.26
2016-09-25T00:19:36.620Z,1011.24
2016-09-25T00:20:36.641Z,1011.27
2016-09-25T00:21:36.660Z,1011.25
2016-09-25T00:22:36.681Z,1011.22
2016-09-25T00:23:36.707Z,1011.25
2016-09-25T00:24:36.725Z,1011.22
2016-09-25T00:25:36.749Z,1011.23
2016-09-25T00:26:36.770Z,1011.26
2016-09-25T00:27:36.792Z,1011.24
2016-09-25T00:28:36.811Z,1011.28
2016-09-25T00:29:36.831Z,1011.25
2016-09-25T00:30:36.853Z,1011.25
2016-09-25T00:31:36.875Z,1011.23
2016-09-25T00:32:36.897Z,1011.22
2016-09-25T00:33:36.918Z,1011.21
2016-09-25T00:34:36.940Z,1011.24
2016-09-25T00:35:36.960Z,1011.24
2016-09-25T00:36:36.982Z,1011.23
2016-09-25T00:37:37.004Z,1011.25
2016-09-25T00:38:37.026Z,1011.27
2016-09-25T00:39:37.051Z,1011.24
2016-09-25T00:40:37.068Z,1011.22
2016-09-25T00:41:37.090Z,1011.22
2016-09-25T00:42:37.111Z,1011.24
2016-09-25T00:43:37.133Z,1011.19
2016-09-25T00:44:37.153Z,1011.23
2016-09-25T00:45:37.175Z,1011.22
2016-09-25T00:46:37.198Z,1011.2
2016-09-25T00:47:37.218Z,1011.18
2016-09-25T00:48:37.239Z,1011.2
2016-09-25T00:49:37.262Z,1011.19
2016-09-25T00:50:37.282Z,1011.17
2016-09-25T00:51:37.302Z,1011.19
2016-09-25T00:52:37.325Z,1011.23
2016-09-25T00:53:37.348Z,1011.24
2016-09-25T00:54:37.368Z,1011.22
2016-09-25T00:55:37.388Z,1011.23
2016-09-25T00:56:37.409Z,1011.22
2016-09-25T00:57:37.431Z,1011.23
2016-09-25T00:58:37.455Z,1011.22
2016-09-25T00:59:37.472Z,1011.17
2016-09-25T01:00:37.494Z,1011.17
2016-09-25T01:01:37.516Z,1011.16
2016-09-25T01:02:37.536Z,1011.13
2016-09-25T01:03:37.558Z,1011.15
2016-09-25T01:04:37.579Z,1011.13
2016-09-25T01:05:37.601Z,1011.13
2016-09-25T01:06:37.623Z,1011.09
2016-09-25T01:07:37.643Z,1011.1
2016-09-25T01:08:37.665Z,1011.06
2016-09-25T01:09:37.687Z,1011.1
2016-09-25T01:10:37.706Z,1011.1
2016-09-25T01:11:37.728Z,1011.11
2016-09-25T01:12:37.751Z,1011.1
2016-09-25T01:13:37.771Z,1011.12
2016-09-25T01:14:37.791Z,1011.09
2016-09-25T01:15:37.812Z,1011.07
2016-09-25T01:16:37.837Z,1011.08
2016-09-25T01:17:37.854Z,1011.04
2016-09-25T01:18:37.876Z,1011.1
2016-09-25T01:19:37.900Z,1011.06
2016-09-25T01:20:37.917Z,1011.06
2016-09-25T01:21:37.939Z,1011.06
2016-09-25T01:22:37.960Z,1011.07
2016-09-25T01:23:37.983Z,1011.03
2016-09-25T01:24:38.003Z,1011.01
2016-09-25T01:25:38.024Z,1011.03
2016-09-25T01:26:38.046Z,1011.02
2016-09-25T01:27:38.066Z,1010.96
2016-09-25T01:28:38.087Z,1010.96
2016-09-25T01:29:38.113Z,1010.96
2016-09-25T01:30:38.130Z,1010.97
2016-09-25T01:31:38.150Z,1010.96
2016-09-25T01:32:38.170Z,1010.93
2016-09-25T01:33:38.193Z,1010.93
2016-09-25T01:34:38.214Z,1010.91
2016-09-25T01:35:38.236Z,1010.91
2016-09-25T01:36:38.255Z,1010.89
2016-09-25T01:37:38.278Z,1010.87
2016-09-25T01:38:38.298Z,1010.86
2016-09-25T01:39:38.319Z,1010.85
2016-09-25T01:40:38.339Z,1010.87
2016-09-25T01:41:38.360Z,1010.84
2016-09-25T01:42:38.386Z,1010.81
2016-09-25T01:43:38.403Z,1010.79
2016-09-25T01:44:38.423Z,1010.8
2016-09-25T01:45:38.445Z,1010.8
2016-09-25T01:46:38.466Z,1010.78
2016-09-25T01:47:38.486Z,1010.81
2016-09-25T01:48:38.507Z,1010.8
2016-09-25T01:49:38.528Z,1010.8
2016-09-25T01:50:38.548Z,1010.76
2016-09-25T01:51:38.571Z,1010.73
2016-09-25T01:52:38.591Z,1010.74
2016-09-25T01:53:38.612Z,1010.77
2016-09-25T01:54:38.632Z,1010.76
2016-09-25T01:55:38.657Z,1010.72
2016-09-25T01:56:38.675Z,1010.75
2016-09-25T01:57:38.695Z,1010.75
2016-09-25T01:58:38.717Z,1010.75
2016-09-25T01:59:38.738Z,1010.71
2016-09-25T02:00:38.759Z,1010.74
2016-09-25T02:01:38.780Z,1010.69
2016-09-25T02:02:38.801Z,1010.67
2016-09-25T02:03:38.821Z,1010.71
2016-09-25T02:04:38.841Z,1010.67
2016-09-25T02:05:38.862Z,1010.72
2016-09-25T02:06:38.884Z,1010.69
2016-09-25T02:07:38.905Z,1010.69
2016-09-25T02:08:38.925Z,1010.67
2016-09-25T02:09:38.946Z,1010.65
2016-09-25T02:10:38.968Z,1010.67
2016-09-25T02:11:38.992Z,1010.65
2016-09-25T02:12:39.011Z,1010.64
2016-09-25T02:13:39.031Z,1010.65
2016-09-25T02:14:39.051Z,1010.66
2016-09-25T02:15:39.073Z,1010.65
2016-09-25T02:16:39.094Z,1010.63
2016-09-25T02:17:39.115Z,1010.63
2016-09-25T02:18:39.135Z,1010.62
2016-09-25T02:19:39.155Z,1010.62
2016-09-25T02:20:39.176Z,1010.62
2016-09-25T02:21:39.198Z,1010.61
2016-09-25T02:22:39.217Z,1010.59
2016-09-25T02:23:39.244Z,1010.59
2016-09-25T02:24:39.259Z,1010.58
2016-09-25T02:25:39.281Z,1010.55
2016-09-25T02:26:39.309Z,1010.54
2016-09-25T02:27:39.321Z,1010.58
2016-09-25T02:28:39.343Z,1010.56
2016-09-25T02:29:39.366Z,1010.57
2016-09-25T02:30:39.384Z,1010.55
2016-09-25T02:31:39.404Z,1010.49
2016-09-25T02:32:39.426Z,1010.54
2016-09-25T02:33:39.446Z,1010.53
2016-09-25T02:34:39.467Z,1010.51
2016-09-25T02:35:39.487Z,1010.52
2016-09-25T02:36:39.508Z,1010.51
2016-09-25T02:37:39.529Z,1010.56
2016-09-25T02:38:39.549Z,1010.52
2016-09-25T02:39:39.576Z,1010.5
2016-09-25T02:40:39.592Z,1010.49
2016-09-25T02:41:39.611Z,1010.5
2016-09-25T02:42:39.632Z,1010.47
2016-09-25T02:43:39.656Z,1010.48
2016-09-25T02:44:39.674Z,1010.52
2016-09-25T02:45:39.693Z,1010.46
2016-09-25T02:46:39.714Z,1010.51
2016-09-25T02:47:39.736Z,1010.48
2016-09-25T02:48:39.756Z,1010.5
2016-09-25T02:49:39.777Z,1010.44
2016-09-25T02:50:39.798Z,1010.45
2016-09-25T02:51:39.823Z,1010.51
2016-09-25T02:52:39.838Z,1010.49
2016-09-25T02:53:39.859Z,1010.46
2016-09-25T02:54:39.879Z,1010.42
2016-09-25T02:55:39.900Z,1010.38
2016-09-25T02:56:39.920Z,1010.42
2016-09-25T02:57:39.942Z,1010.42
2016-09-25T02:58:39.963Z,1010.41
2016-09-25T02:59:39.984Z,1010.39
2016-09-25T03:00:40.004Z,1010.4
2016-09-25T03:01:40.024Z,1010.36
2016-09-25T03:02:40.046Z,1010.35
2016-09-25T03:03:40.065Z,1010.34
2016-09-25T03:04:40.086Z,1010.34
2016-09-25T03:05:40.107Z,1010.32
2016-09-25T03:06:40.126Z,1010.29
2016-09-25T03:07:40.148Z,1010.3
2016-09-25T03:08:40.168Z,1010.28
2016-09-25T03:09:40.190Z,1010.28
2016-09-25T03:10:40.209Z,1010.29
2016-09-25T03:11:40.229Z,1010.27
2016-09-25T03:12:40.252Z,1010.27
2016-09-25T03:13:40.271Z,1010.26
2016-09-25T03:14:40.291Z,1010.3
2016-09-25T03:15:40.314Z,1010.24
2016-09-25T03:16:40.333Z,1010.27
2016-09-25T03:17:40.353Z,1010.28
2016-09-25T03:18:40.373Z,1010.28
2016-09-25T03:19:40.394Z,1010.27
2016-09-25T03:20:40.414Z,1010.24
2016-09-25T03:21:40.435Z,1010.24
2016-09-25T03:22:40.456Z,1010.24
2016-09-25T03:23:40.475Z,1010.23
2016-09-25T03:24:40.497Z,1010.23
2016-09-25T03:25:40.518Z,1010.24
2016-09-25T03:26:40.538Z,1010.22
2016-09-25T03:27:40.558Z,1010.26
2016-09-25T03:28:40.583Z,1010.27
2016-09-25T03:29:40.598Z,1010.21
2016-09-25T03:30:40.620Z,1010.25
2016-09-25T03:31:40.640Z,1010.23
2016-09-25T03:32:40.663Z,1010.21
2016-09-25T03:33:40.679Z,1010.21
2016-09-25T03:34:40.702Z,1010.16
2016-09-25T03:35:40.722Z,1010.21
2016-09-25T03:36:40.741Z,1010.17
2016-09-25T03:37:40.763Z,1010.18
2016-09-25T03:38:40.782Z,1010.2
2016-09-25T03:39:40.804Z,1010.14
2016-09-25T03:40:40.826Z,1010.16
2016-09-25T03:41:40.844Z,1010.15
2016-09-25T03:42:40.865Z,1010.17
2016-09-25T03:43:40.884Z,1010.14
2016-09-25T03:44:40.905Z,1010.16
2016-09-25T03:45:40.925Z,1010.11
2016-09-25T03:46:40.946Z,1010.1
2016-09-25T03:47:40.968Z,1010.11
2016-09-25T03:48:40.988Z,1010.07
2016-09-25T03:49:41.014Z,1010.06
2016-09-25T03:50:41.027Z,1010.07
2016-09-25T03:51:41.049Z,1010.08
2016-09-25T03:52:41.068Z,1010.08
2016-09-25T03:53:41.089Z,1010.07
2016-09-25T03:54:41.109Z,1010.03
2016-09-25T03:55:41.132Z,1010.02
2016-09-25T03:56:41.151Z,1010.03
2016-09-25T03:57:41.169Z,1010.04
2016-09-25T03:58:41.190Z,1010.01
2016-09-25T03:59:41.211Z,1009.99
2016-09-25T04:00:41.232Z,1010.04
2016-09-25T04:01:41.249Z,1010.02
2016-09-25T04:02:41.286Z,1010.03
2016-09-25T04:03:41.292Z,1010.04
2016-09-25T04:04:41.312Z,1010.03
2016-09-25T04:05:41.333Z,1010.05
2016-09-25T04:06:41.352Z,1010.02
2016-09-25T04:07:41.373Z,1010.04
2016-09-25T04:08:41.392Z,1010.04
2016-09-25T04:09:41.412Z,1010.06
2016-09-25T04:10:41.434Z,1010.05
2016-09-25T04:11:41.455Z,1010.04
2016-09-25T04:12:41.474Z,1010.02
2016-09-25T04:13:41.493Z,1010.03
2016-09-25T04:14:41.515Z,1010
2016-09-25T04:15:41.535Z,1010.02
2016-09-25T04:16:41.554Z,1009.99
2016-09-25T04:17:41.575Z,1009.97
2016-09-25T04:18:41.596Z,1009.98
2016-09-25T04:19:41.615Z,1009.98
2016-09-25T04:20:41.636Z,1009.99
2016-09-25T04:21:41.656Z,1009.94
2016-09-25T04:22:41.677Z,1009.98
2016-09-25T04:23:41.697Z,1009.96
2016-09-25T04:24:41.718Z,1009.98
2016-09-25T04:25:41.738Z,1010.01
2016-09-25T04:26:41.760Z,1010.01
2016-09-25T04:27:41.777Z,1009.97
2016-09-25T04:28:41.798Z,1009.96
2016-09-25T04:29:41.819Z,1009.99
2016-09-25T04:30:41.838Z,1009.97
2016-09-25T04:31:41.859Z,1009.91
2016-09-25T04:32:41.879Z,1009.95
2016-09-25T04:33:41.901Z,1009.93
2016-09-25T04:34:41.919Z,1009.96
2016-09-25T04:35:41.941Z,1009.97
2016-09-25T04:36:41.961Z,1009.97
2016-09-25T04:37:42.087Z,1009.98
2016-09-25T04:38:42.094Z,1009.97
2016-09-25T04:39:42.102Z,1009.99
2016-09-25T04:40:42.102Z,1009.99
2016-09-25T04:41:42.111Z,1010.02
2016-09-25T04:42:42.279Z,1009.98
2016-09-25T04:43:42.129Z,1009.98
2016-09-25T04:44:42.139Z,1010
2016-09-25T04:45:42.143Z,1009.99
2016-09-25T04:46:42.280Z,1010.03
2016-09-25T04:47:42.314Z,1010
2016-09-25T04:48:42.297Z,1009.99
2016-09-25T04:49:42.331Z,1010.03
2016-09-25T04:50:42.346Z,1010.02
2016-09-25T04:51:42.360Z,1010
2016-09-25T04:52:42.394Z,1010.01
2016-09-25T04:53:42.373Z,1010.01
2016-09-25T04:54:42.398Z,1010
2016-09-25T04:55:42.406Z,1010.03
2016-09-25T04:56:42.415Z,1010.03
2016-09-25T04:57:42.435Z,1010.05
2016-09-25T04:58:42.432Z,1010.02
2016-09-25T04:59:42.440Z,1010.05
2016-09-25T05:00:42.445Z,1010.04
2016-09-25T05:01:42.465Z,1010.03
2016-09-25T05:02:42.486Z,1010.04
2016-09-25T05:03:42.506Z,1010.05
2016-09-25T05:04:42.525Z,1010.07
2016-09-25T05:05:42.546Z,1010.08
2016-09-25T05:06:42.566Z,1010.07
2016-09-25T05:07:42.587Z,1010.04
2016-09-25T05:08:42.606Z,1010.05
2016-09-25T05:09:42.626Z,1010.07
2016-09-25T05:10:42.646Z,1010.09
2016-09-25T05:11:42.665Z,1010.12
2016-09-25T05:12:42.687Z,1010.09
2016-09-25T05:13:42.706Z,1010.08
2016-09-25T05:14:42.724Z,1010.08
2016-09-25T05:15:42.746Z,1010.08
2016-09-25T05:16:42.767Z,1010.09
2016-09-25T05:17:42.801Z,1010.09
2016-09-25T05:18:42.805Z,1010.1
2016-09-25T05:19:42.825Z,1010.09
2016-09-25T05:20:42.846Z,1010.07
2016-09-25T05:21:42.866Z,1010.07
2016-09-25T05:22:42.887Z,1010.04
2016-09-25T05:23:42.907Z,1010.05
2016-09-25T05:24:42.927Z,1010.06
2016-09-25T05:25:42.947Z,1010.05
2016-09-25T05:26:42.966Z,1010.06
2016-09-25T05:27:42.986Z,1010.05
2016-09-25T05:28:43.007Z,1010.08
2016-09-25T05:29:43.025Z,1010.07
2016-09-25T05:30:43.052Z,1010.09
2016-09-25T05:31:43.067Z,1010.07
2016-09-25T05:32:43.087Z,1010.08
2016-09-25T05:33:43.108Z,1010.06
2016-09-25T05:34:43.126Z,1010.07
2016-09-25T05:35:43.147Z,1010.03
2016-09-25T05:36:43.167Z,1010.05
2016-09-25T05:37:43.187Z,1010.02
2016-09-25T05:38:43.209Z,1010.02
2016-09-25T05:39:43.227Z,1010.01
2016-09-25T05:40:43.246Z,1010
2016-09-25T05:41:43.267Z,1009.99
2016-09-25T05:42:43.287Z,1010
2016-09-25T05:43:43.306Z,1009.98
2016-09-25T05:44:43.327Z,1009.97
2016-09-25T05:45:43.347Z,1009.98
2016-09-25T05:46:43.368Z,1010.01
2016-09-25T05:47:43.386Z,1010
2016-09-25T05:48:43.410Z,1009.97
2016-09-25T05:49:43.427Z,1010
2016-09-25T05:50:43.446Z,1009.97
2016-09-25T05:51:43.467Z,1009.96
2016-09-25T05:52:43.486Z,1010.01
2016-09-25T05:53:43.507Z,1010.01
2016-09-25T05:54:43.526Z,1010
2016-09-25T05:55:43.546Z,1009.97
2016-09-25T05:56:43.566Z,1010.02
2016-09-25T05:57:43.586Z,1010.03
2016-09-25T05:58:43.607Z,1010.04
2016-09-25T05:59:43.626Z,1010.06
2016-09-25T06:00:43.646Z,1010.04
2016-09-25T06:01:43.666Z,1010.04
2016-09-25T06:02:43.686Z,1010.07
2016-09-25T06:03:43.705Z,1010.06
2016-09-25T06:04:43.726Z,1010.05
2016-09-25T06:05:43.745Z,1010.05
2016-09-25T06:06:43.766Z,1010.05
2016-09-25T06:07:43.787Z,1010.08
2016-09-25T06:08:43.806Z,1010.06
2016-09-25T06:09:43.825Z,1010.09
2016-09-25T06:10:43.848Z,1010.11
2016-09-25T06:11:43.866Z,1010.11
2016-09-25T06:12:43.886Z,1010.07
2016-09-25T06:13:43.906Z,1010.15
2016-09-25T06:14:43.926Z,1010.12
2016-09-25T06:15:43.946Z,1010.11
2016-09-25T06:16:43.965Z,1010.09
2016-09-25T06:17:43.985Z,1010.1
2016-09-25T06:18:44.005Z,1010.1
2016-09-25T06:19:44.026Z,1010.11
2016-09-25T06:20:44.046Z,1010.08
2016-09-25T06:21:44.065Z,1010.08
2016-09-25T06:22:44.086Z,1010.06
2016-09-25T06:23:44.106Z,1010.13
2016-09-25T06:24:44.125Z,1010.08
2016-09-25T06:25:44.146Z,1010.12
2016-09-25T06:26:44.166Z,1010.11
2016-09-25T06:27:44.185Z,1010.11
2016-09-25T06:28:44.205Z,1010.09
2016-09-25T06:29:44.226Z,1010.1
2016-09-25T06:30:44.246Z,1010.12
2016-09-25T06:31:44.263Z,1010.09
2016-09-25T06:32:44.285Z,1010.09
2016-09-25T06:33:44.306Z,1010.1
2016-09-25T06:34:44.327Z,1010.1
2016-09-25T06:35:44.346Z,1010.12
2016-09-25T06:36:44.365Z,1010.16
2016-09-25T06:37:44.386Z,1010.17
2016-09-25T06:38:44.406Z,1010.18
2016-09-25T06:39:44.425Z,1010.18
2016-09-25T06:40:44.446Z,1010.18
2016-09-25T06:41:44.468Z,1010.17
2016-09-25T06:42:44.486Z,1010.23
2016-09-25T06:43:44.506Z,1010.2
2016-09-25T06:44:44.526Z,1010.21
2016-09-25T06:45:44.547Z,1010.19
2016-09-25T06:46:44.566Z,1010.17
2016-09-25T06:47:44.585Z,1010.17
2016-09-25T06:48:44.607Z,1010.22
2016-09-25T06:49:44.626Z,1010.21
2016-09-25T06:50:44.646Z,1010.21
2016-09-25T06:51:44.666Z,1010.19
2016-09-25T06:52:44.689Z,1010.23
2016-09-25T06:53:44.706Z,1010.19
2016-09-25T06:54:44.728Z,1010.19
2016-09-25T06:55:44.746Z,1010.23
2016-09-25T06:56:44.768Z,1010.21
2016-09-25T06:57:44.788Z,1010.22
2016-09-25T06:58:44.809Z,1010.24
2016-09-25T06:59:44.829Z,1010.23
2016-09-25T07:00:44.849Z,1010.27
2016-09-25T07:01:44.868Z,1010.21
2016-09-25T07:02:44.889Z,1010.22
2016-09-25T07:03:44.910Z,1010.22
2016-09-25T07:04:44.930Z,1010.2
2016-09-25T07:05:44.949Z,1010.22
2016-09-25T07:06:44.970Z,1010.22
2016-09-25T07:07:44.989Z,1010.22
2016-09-25T07:08:45.010Z,1010.2
2016-09-25T07:09:45.031Z,1010.25
2016-09-25T07:10:45.050Z,1010.23
2016-09-25T07:11:45.072Z,1010.24
2016-09-25T07:12:45.091Z,1010.24
2016-09-25T07:13:45.111Z,1010.22
2016-09-25T07:14:45.133Z,1010.2
2016-09-25T07:15:45.152Z,1010.2
2016-09-25T07:16:45.172Z,1010.19
2016-09-25T07:17:45.193Z,1010.2
2016-09-25T07:18:45.212Z,1010.21
2016-09-25T07:19:45.233Z,1010.23
2016-09-25T07:20:45.256Z,1010.18
2016-09-25T07:21:45.274Z,1010.22
2016-09-25T07:22:45.295Z,1010.22
2016-09-25T07:23:45.314Z,1010.22
2016-09-25T07:24:45.335Z,1010.2
2016-09-25T07:25:45.356Z,1010.18
2016-09-25T07:26:45.375Z,1010.18
2016-09-25T07:27:45.396Z,1010.21
2016-09-25T07:28:45.416Z,1010.18
2016-09-25T07:29:45.437Z,1010.19
2016-09-25T07:30:45.462Z,1010.17
2016-09-25T07:31:45.478Z,1010.22
2016-09-25T07:32:45.498Z,1010.2
2016-09-25T07:33:45.518Z,1010.22
2016-09-25T07:34:45.539Z,1010.21
2016-09-25T07:35:45.559Z,1010.17
2016-09-25T07:36:45.579Z,1010.18
2016-09-25T07:37:45.600Z,1010.19
2016-09-25T07:38:45.620Z,1010.17
2016-09-25T07:39:45.642Z,1010.16
2016-09-25T07:40:45.661Z,1010.2
2016-09-25T07:41:45.680Z,1010.17
2016-09-25T07:42:45.706Z,1010.15
2016-09-25T07:43:45.724Z,1010.17
2016-09-25T07:44:45.745Z,1010.1
2016-09-25T07:45:45.763Z,1010.11
2016-09-25T07:46:45.785Z,1010.15
2016-09-25T07:47:45.806Z,1010.16
2016-09-25T07:48:45.839Z,1010.15
2016-09-25T07:49:45.845Z,1010.14
2016-09-25T07:50:45.868Z,1010.16
2016-09-25T07:51:45.887Z,1010.08
2016-09-25T07:52:45.909Z,1010.14
2016-09-25T07:53:45.929Z,1010.15
2016-09-25T07:54:45.949Z,1010.13
2016-09-25T07:55:45.969Z,1010.08
2016-09-25T07:56:45.990Z,1010.08
2016-09-25T07:57:46.011Z,1010.13
2016-09-25T07:58:46.034Z,1010.06
2016-09-25T07:59:46.052Z,1010.09
2016-09-25T08:00:46.073Z,1010.07
2016-09-25T08:01:46.094Z,1010.06
2016-09-25T08:02:46.114Z,1010.06
2016-09-25T08:03:46.136Z,1010.05
2016-09-25T08:04:46.161Z,1010.09
2016-09-25T08:05:46.178Z,1010.1
2016-09-25T08:06:46.197Z,1010.05
2016-09-25T08:07:46.218Z,1010.05
2016-09-25T08:08:46.240Z,1010.03
2016-09-25T08:09:46.260Z,1010
2016-09-25T08:10:46.282Z,1010.02
2016-09-25T08:11:46.302Z,1009.98
2016-09-25T08:12:46.325Z,1010
2016-09-25T08:13:46.348Z,1009.97
2016-09-25T08:14:46.367Z,1009.98
2016-09-25T08:15:46.386Z,1009.97
2016-09-25T08:16:46.420Z,1009.97
2016-09-25T08:17:46.427Z,1009.94
2016-09-25T08:18:46.448Z,1009.96
2016-09-25T08:19:46.470Z,1009.92
2016-09-25T08:20:46.491Z,1009.92
2016-09-25T08:21:46.511Z,1009.92
2016-09-25T08:22:46.532Z,1009.91
2016-09-25T08:23:46.554Z,1009.94
2016-09-25T08:24:46.574Z,1009.94
2016-09-25T08:25:46.596Z,1009.94
2016-09-25T08:26:46.617Z,1009.92
2016-09-25T08:27:46.638Z,1009.91
2016-09-25T08:28:46.660Z,1009.92
2016-09-25T08:29:46.680Z,1009.92
2016-09-25T08:30:46.702Z,1009.91
2016-09-25T08:31:46.722Z,1009.9
2016-09-25T08:32:46.746Z,1009.92
2016-09-25T08:33:46.767Z,1009.92
2016-09-25T08:34:46.788Z,1009.91
2016-09-25T08:35:46.810Z,1009.89
2016-09-25T08:36:46.831Z,1009.89
2016-09-25T08:37:46.852Z,1009.89
2016-09-25T08:38:46.874Z,1009.87
2016-09-25T08:39:46.895Z,1009.88
2016-09-25T08:40:46.918Z,1009.83
2016-09-25T08:41:46.939Z,1009.82
2016-09-25T08:42:46.960Z,1009.81
2016-09-25T08:43:46.980Z,1009.83
2016-09-25T08:44:47.003Z,1009.8
2016-09-25T08:45:47.024Z,1009.84
2016-09-25T08:46:47.045Z,1009.8
2016-09-25T08:47:47.068Z,1009.82
2016-09-25T08:48:47.090Z,1009.8
2016-09-25T08:49:47.110Z,1009.8
2016-09-25T08:50:47.132Z,1009.83
2016-09-25T08:51:47.155Z,1009.81
2016-09-25T08:52:47.177Z,1009.82
2016-09-25T08:53:47.197Z,1009.82
2016-09-25T08:54:47.219Z,1009.83
2016-09-25T08:55:47.241Z,1009.81
2016-09-25T08:56:47.264Z,1009.85
2016-09-25T08:57:47.283Z,1009.81
2016-09-25T08:58:47.309Z,1009.84
2016-09-25T08:59:47.329Z,1009.78
2016-09-25T09:00:47.351Z,1009.83
2016-09-25T09:01:47.374Z,1009.83
2016-09-25T09:02:47.395Z,1009.8
2016-09-25T09:03:47.417Z,1009.81
2016-09-25T09:04:47.438Z,1009.81
2016-09-25T09:05:47.462Z,1009.81
2016-09-25T09:06:47.483Z,1009.8
2016-09-25T09:07:47.505Z,1009.79
2016-09-25T09:08:47.527Z,1009.74
2016-09-25T09:09:47.550Z,1009.77
2016-09-25T09:10:47.571Z,1009.79
2016-09-25T09:11:47.594Z,1009.76
2016-09-25T09:12:47.616Z,1009.74
2016-09-25T09:13:47.638Z,1009.72
2016-09-25T09:14:47.661Z,1009.74
2016-09-25T09:15:47.683Z,1009.74
2016-09-25T09:16:47.705Z,1009.73
2016-09-25T09:17:47.728Z,1009.73
2016-09-25T09:18:47.749Z,1009.68
2016-09-25T09:19:47.772Z,1009.7
2016-09-25T09:20:47.795Z,1009.68
2016-09-25T09:21:47.817Z,1009.7
2016-09-25T09:22:47.840Z,1009.68
2016-09-25T09:23:47.863Z,1009.66
2016-09-25T09:24:47.885Z,1009.71
2016-09-25T09:25:47.909Z,1009.7
2016-09-25T09:26:47.931Z,1009.67
2016-09-25T09:27:47.955Z,1009.66
2016-09-25T09:28:47.978Z,1009.7
2016-09-25T09:29:47.999Z,1009.65
2016-09-25T09:30:48.021Z,1009.64
2016-09-25T09:31:48.044Z,1009.66
2016-09-25T09:32:48.067Z,1009.64
2016-09-25T09:33:48.090Z,1009.66
2016-09-25T09:34:48.113Z,1009.64
2016-09-25T09:35:48.136Z,1009.63
2016-09-25T09:36:48.160Z,1009.64
2016-09-25T09:37:48.186Z,1009.61
2016-09-25T09:38:48.204Z,1009.63
2016-09-25T09:39:48.228Z,1009.6
2016-09-25T09:40:48.251Z,1009.63
2016-09-25T09:41:48.272Z,1009.67
2016-09-25T09:42:48.298Z,1009.65
2016-09-25T09:43:48.320Z,1009.64
2016-09-25T09:44:48.343Z,1009.63
2016-09-25T09:45:48.366Z,1009.61
2016-09-25T09:46:48.389Z,1009.59
2016-09-25T09:47:48.413Z,1009.6
2016-09-25T09:48:48.435Z,1009.56
2016-09-25T09:49:48.459Z,1009.59
2016-09-25T09:50:48.483Z,1009.54
2016-09-25T09:51:48.506Z,1009.61
2016-09-25T09:52:48.529Z,1009.55
2016-09-25T09:53:48.553Z,1009.54
2016-09-25T09:54:48.577Z,1009.54
2016-09-25T09:55:48.600Z,1009.48
2016-09-25T09:56:48.623Z,1009.49
2016-09-25T09:57:48.648Z,1009.49
2016-09-25T09:58:48.672Z,1009.45
2016-09-25T09:59:48.702Z,1009.43
2016-09-25T10:00:48.717Z,1009.41
2016-09-25T10:01:48.742Z,1009.39
2016-09-25T10:02:48.765Z,1009.41
2016-09-25T10:03:48.789Z,1009.4
2016-09-25T10:04:48.813Z,1009.39
2016-09-25T10:05:48.837Z,1009.39
2016-09-25T10:06:48.862Z,1009.33
2016-09-25T10:07:48.891Z,1009.34
2016-09-25T10:08:48.910Z,1009.39
2016-09-25T10:09:48.935Z,1009.36
2016-09-25T10:10:48.958Z,1009.33
2016-09-25T10:11:48.982Z,1009.31
2016-09-25T10:12:49.007Z,1009.29
2016-09-25T10:13:49.031Z,1009.25
2016-09-25T10:14:49.061Z,1009.23
2016-09-25T10:15:49.080Z,1009.22
2016-09-25T10:16:49.104Z,1009.25
2016-09-25T10:17:49.127Z,1009.22
2016-09-25T10:18:49.152Z,1009.25
2016-09-25T10:19:49.176Z,1009.23
2016-09-25T10:20:49.201Z,1009.26
2016-09-25T10:21:49.225Z,1009.22
2016-09-25T10:22:49.249Z,1009.24
2016-09-25T10:23:49.275Z,1009.16
2016-09-25T10:24:49.300Z,1009.2
2016-09-25T10:25:49.323Z,1009.18
2016-09-25T10:26:49.348Z,1009.16
2016-09-25T10:27:49.373Z,1009.15
2016-09-25T10:28:49.396Z,1009.13
2016-09-25T10:29:49.422Z,1009.09
2016-09-25T10:30:49.448Z,1009.08
2016-09-25T10:31:49.472Z,1009.11
2016-09-25T10:32:49.497Z,1009.06
2016-09-25T10:33:49.521Z,1009.1
2016-09-25T10:34:49.548Z,1009.1
2016-09-25T10:35:49.572Z,1009.11
2016-09-25T10:36:49.596Z,1009.09
2016-09-25T10:37:49.621Z,1009.08
2016-09-25T10:38:49.646Z,1009.1
2016-09-25T10:39:49.671Z,1009.07
2016-09-25T10:40:49.698Z,1009.07
2016-09-25T10:41:49.721Z,1009.03
2016-09-25T10:42:49.747Z,1009.05
2016-09-25T10:43:49.771Z,1008.99
2016-09-25T10:44:49.796Z,1009.04
2016-09-25T10:45:49.823Z,1009.04
2016-09-25T10:46:49.848Z,1009.01
2016-09-25T10:47:49.873Z,1008.98
2016-09-25T10:48:49.900Z,1008.98
2016-09-25T10:49:49.924Z,1009.02
2016-09-25T10:50:49.949Z,1009
2016-09-25T10:51:49.974Z,1008.99
2016-09-25T10:52:50.000Z,1009.01
2016-09-25T10:53:50.026Z,1009
2016-09-25T10:54:50.057Z,1009
2016-09-25T10:55:50.077Z,1008.98
2016-09-25T10:56:50.103Z,1008.98
2016-09-25T10:57:50.135Z,1008.93
2016-09-25T10:58:50.154Z,1008.97
2016-09-25T10:59:50.181Z,1008.95
2016-09-25T11:00:50.205Z,1008.9
2016-09-25T11:01:50.231Z,1008.93
2016-09-25T11:02:50.257Z,1008.92
2016-09-25T11:03:50.284Z,1008.92
2016-09-25T11:04:50.317Z,1008.86
2016-09-25T11:05:50.335Z,1008.86
2016-09-25T11:06:50.362Z,1008.92
2016-09-25T11:07:50.389Z,1008.9
2016-09-25T11:08:50.414Z,1008.86
2016-09-25T11:09:50.441Z,1008.84
2016-09-25T11:10:50.466Z,1008.85
2016-09-25T11:11:50.492Z,1008.8
2016-09-25T11:12:50.518Z,1008.79
2016-09-25T11:13:50.544Z,1008.79
2016-09-25T11:14:50.571Z,1008.8
2016-09-25T11:15:50.598Z,1008.83
2016-09-25T11:16:50.623Z,1008.73
2016-09-25T11:17:50.701Z,1008.75
2016-09-25T11:18:50.685Z,1008.77
2016-09-25T11:19:50.703Z,1008.75
2016-09-25T11:20:50.730Z,1008.69
2016-09-25T11:21:50.758Z,1008.75
2016-09-25T11:22:50.782Z,1008.76
2016-09-25T11:23:50.809Z,1008.72
2016-09-25T11:24:50.835Z,1008.74
2016-09-25T11:25:50.868Z,1008.76
2016-09-25T11:26:50.889Z,1008.72
2016-09-25T11:27:50.915Z,1008.73
2016-09-25T11:28:50.943Z,1008.72
2016-09-25T11:29:50.969Z,1008.67
2016-09-25T11:30:50.995Z,1008.6
2016-09-25T11:31:51.022Z,1008.58
2016-09-25T11:32:51.050Z,1008.65
2016-09-25T11:33:51.076Z,1008.59
2016-09-25T11:34:51.102Z,1008.56
2016-09-25T11:35:51.131Z,1008.52
2016-09-25T11:36:51.157Z,1008.57
2016-09-25T11:37:51.184Z,1008.54
2016-09-25T11:38:51.211Z,1008.53
2016-09-25T11:39:51.241Z,1008.51
2016-09-25T11:40:51.265Z,1008.55
2016-09-25T11:41:51.292Z,1008.53
2016-09-25T11:42:51.330Z,1008.48
2016-09-25T11:43:51.347Z,1008.47
2016-09-25T11:44:51.374Z,1008.47
2016-09-25T11:45:51.402Z,1008.44
2016-09-25T11:46:51.429Z,1008.44
2016-09-25T11:47:51.570Z,1008.41
2016-09-25T11:48:51.580Z,1008.41
2016-09-25T11:49:51.614Z,1008.43
2016-09-25T11:50:51.622Z,1008.43
2016-09-25T11:51:51.631Z,1008.42
2016-09-25T11:52:51.793Z,1008.43
2016-09-25T11:53:51.640Z,1008.43
2016-09-25T11:54:51.650Z,1008.36
2016-09-25T11:55:51.792Z,1008.39
2016-09-25T11:56:51.800Z,1008.34
2016-09-25T11:57:51.825Z,1008.35
2016-09-25T11:58:51.849Z,1008.32
2016-09-25T11:59:51.857Z,1008.3
2016-09-25T12:00:51.893Z,1008.32
2016-09-25T12:01:51.891Z,1008.34
2016-09-25T12:02:51.967Z,1008.36
2016-09-25T12:03:51.908Z,1008.31
2016-09-25T12:04:51.993Z,1008.33
2016-09-25T12:05:51.950Z,1008.3
2016-09-25T12:06:51.981Z,1008.28
2016-09-25T12:07:52.010Z,1008.27
2016-09-25T12:08:52.032Z,1008.28
2016-09-25T12:09:52.061Z,1008.26